Ken Orchid — A8VZ2 — position and weather

sailwx.info

Track history (hours):
 
Tides and Currents Weather Stations Pressure Air Temp Water Temp Dewpoint Dewpoint Depression Visibility Wind Speed Wind Dir Waves Ship Positions

Ken Orchid

Last reported at 2017-Sep-19 13:49 UTC. Time now 2017-Sep-24 12:25 UTC.
Position N 01°16' E 103°53'.

Length 169 m; draft 5.1 m.

Type: Cargo ship. MMSI: 636014693.

Date/timePositionNaut miles runAvg speedWind from/ knotsBaromVisibWave heightAir tempDewpointWater temp
2017-Sep-19 13:49N 01°16' E 103°53'0 0.0
2017-Sep-19 12:04N 01°16' E 103°53'0 0.0
2017-Sep-19 11:51N 01°16' E 103°53'0 0.0
2017-Sep-19 11:15N 01°16' E 103°53'0 0.0
2017-Sep-19 10:51N 01°16' E 103°53'0 0.0
2017-Sep-19 10:26N 01°16' E 103°53'11 1.9
2017-Sep-19 04:39N 01°15' E 104°04'213.5
2017-Sep-19 04:30N 01°14' E 104°02'612.6
2017-Sep-19 04:00N 01°14' E 103°56'3 5.5
2017-Sep-19 03:29N 01°16' E 103°53'0 0.0
2017-Sep-19 02:56N 01°16' E 103°53'0 0.0
2017-Sep-19 02:05N 01°16' E 103°53'0 0.1
2017-Sep-19 01:59N 01°16' E 103°53'0 0.0
2017-Sep-19 01:26N 01°16' E 103°53'0 0.0
2017-Sep-19 00:59N 01°16' E 103°53'0 0.0
2017-Sep-19 00:26N 01°16' E 103°53'0 0.0
2017-Sep-18 23:53N 01°16' E 103°53'0 0.0
2017-Sep-18 23:20N 01°16' E 103°53'0 0.0
2017-Sep-18 22:56N 01°16' E 103°53'0 0.0
2017-Sep-18 22:29N 01°16' E 103°53'0 0.0
2017-Sep-18 21:56N 01°16' E 103°53'0 0.0
2017-Sep-18 21:29N 01°16' E 103°53'0 0.1
2017-Sep-18 20:44N 01°16' E 103°53'0 0.2
2017-Sep-18 20:26N 01°16' E 103°53'0 0.0
2017-Sep-18 19:56N 01°16' E 103°53'0 0.1
2017-Sep-18 19:26N 01°16' E 103°54'0 0.0
2017-Sep-18 18:56N 01°16' E 103°54'0 0.1
2017-Sep-18 18:23N 01°16' E 103°53'2 5.4
2017-Sep-18 18:00N 01°14' E 103°53'1 2.8
2017-Sep-18 17:30N 01°12' E 103°54'4 9.0
2017-Sep-18 17:01N 01°10' E 103°50'713.4
2017-Sep-18 16:31N 01°06' E 103°45'612.3
2017-Sep-18 16:00N 01°03' E 103°39'611.2
2017-Sep-18 15:30N 01°05' E 103°34'611.7
2017-Sep-18 15:00N 01°08' E 103°29'611.6
2017-Sep-18 14:30N 01°11' E 103°24'611.5
2017-Sep-18 14:01N 01°15' E 103°20'  
Track history (hours):
 
Tides and Currents Weather Stations Pressure Air Temp Water Temp Dewpoint Dewpoint Depression Visibility Wind Speed Wind Dir Waves Ship Positions

Ken Orchid

Last reported at 2017-Sep-19 13:49 UTC. Time now 2017-Sep-24 12:25 UTC.
Position N 01°16' E 103°53'.

Length 169 m; draft 5.1 m.

Type: Cargo ship. MMSI: 636014693.

Date/timePositionNaut miles runAvg speedWind from/ knotsBaromVisibWave heightAir tempDewpointWater temp
2017-Sep-19 13:49N 01°16' E 103°53'0 0.0
2017-Sep-19 12:04N 01°16' E 103°53'0 0.0
2017-Sep-19 11:51N 01°16' E 103°53'0 0.0
2017-Sep-19 11:15N 01°16' E 103°53'0 0.0
2017-Sep-19 10:51N 01°16' E 103°53'0 0.0
2017-Sep-19 10:26N 01°16' E 103°53'11 1.9
2017-Sep-19 04:39N 01°15' E 104°04'213.5
2017-Sep-19 04:30N 01°14' E 104°02'612.6
2017-Sep-19 04:00N 01°14' E 103°56'3 5.5
2017-Sep-19 03:29N 01°16' E 103°53'0 0.0
2017-Sep-19 02:56N 01°16' E 103°53'0 0.0
2017-Sep-19 02:05N 01°16' E 103°53'0 0.1
2017-Sep-19 01:59N 01°16' E 103°53'0 0.0
2017-Sep-19 01:26N 01°16' E 103°53'0 0.0
2017-Sep-19 00:59N 01°16' E 103°53'0 0.0
2017-Sep-19 00:26N 01°16' E 103°53'0 0.0
2017-Sep-18 23:53N 01°16' E 103°53'0 0.0
2017-Sep-18 23:20N 01°16' E 103°53'0 0.0
2017-Sep-18 22:56N 01°16' E 103°53'0 0.0
2017-Sep-18 22:29N 01°16' E 103°53'0 0.0
2017-Sep-18 21:56N 01°16' E 103°53'0 0.0
2017-Sep-18 21:29N 01°16' E 103°53'0 0.1
2017-Sep-18 20:44N 01°16' E 103°53'0 0.2
2017-Sep-18 20:26N 01°16' E 103°53'0 0.0
2017-Sep-18 19:56N 01°16' E 103°53'0 0.1
2017-Sep-18 19:26N 01°16' E 103°54'0 0.0
2017-Sep-18 18:56N 01°16' E 103°54'0 0.1
2017-Sep-18 18:23N 01°16' E 103°53'2 5.4
2017-Sep-18 18:00N 01°14' E 103°53'1 2.8
2017-Sep-18 17:30N 01°12' E 103°54'4 9.0
2017-Sep-18 17:01N 01°10' E 103°50'713.4
2017-Sep-18 16:31N 01°06' E 103°45'612.3
2017-Sep-18 16:00N 01°03' E 103°39'611.2
2017-Sep-18 15:30N 01°05' E 103°34'611.7
2017-Sep-18 15:00N 01°08' E 103°29'611.6
2017-Sep-18 14:30N 01°11' E 103°24'611.5
2017-Sep-18 14:01N 01°15' E 103°20'  

Dump ship's entire track history